首页
METAR-TAF:

METAR-TAF

机场 :

福里斯特城, 艾奥瓦州, 美国

纬度: 43-14-05N, 经度: 093-37-27W, 海拔: 375米

当前天气观测

该预报发布于26分钟前的21:35 UTC
风速14节,风向,有时为20节阵风
温度 -8°C
湿度 57%
气压 1025 hPa
能見度: 16.1公里
天空无云

METAR: KFXY 122135Z AUTO 17014G20KT 10SM CLR M08/M15 A3027 RMK AO2

时间: 16:01 (22:01 UTC)


TAF: 丢失

超过4000个机场的气象观测和天气预报(METAR&TAF报告)。

可查询的气象台以黄色和红色小点在地图上表示。

将鼠标移到小点上方,可查看气象台名称。

然后点击查看天气观测和预报。

如需切换地图:点击带黑十字的绿色按钮放大地图;点击带横线的绿色按钮缩小地图;或者点击绿色箭头查看邻近地区的地图。


METAR-TAF: